createdAt,value
2024-05-09T00:00:00.874Z,12.39
2024-05-09T00:01:00.924Z,12.36
2024-05-09T00:02:00.917Z,12.39
2024-05-09T00:03:00.932Z,12.47
2024-05-09T00:04:00.994Z,12.52
2024-05-09T00:05:00.991Z,12.54
2024-05-09T00:06:01.041Z,12.42
2024-05-09T00:07:00.882Z,12.44
2024-05-09T00:08:01.135Z,12.50
2024-05-09T00:09:00.885Z,12.43
2024-05-09T00:10:00.905Z,12.31
2024-05-09T00:11:00.962Z,12.14
2024-05-09T00:12:01.071Z,12.10
2024-05-09T00:13:00.886Z,12.02
2024-05-09T00:14:00.995Z,11.96
2024-05-09T00:15:00.892Z,12.01
2024-05-09T00:16:00.904Z,12.03
2024-05-09T00:17:00.975Z,12.07
2024-05-09T00:18:01.414Z,11.95
2024-05-09T00:19:00.966Z,11.95
2024-05-09T00:20:00.938Z,11.99
2024-05-09T00:21:01.059Z,12.10
2024-05-09T00:22:00.925Z,12.01
2024-05-09T00:23:00.897Z,11.98
2024-05-09T00:24:00.908Z,12.05
2024-05-09T00:25:00.897Z,12.12
2024-05-09T00:26:00.932Z,12.03
2024-05-09T00:27:00.936Z,12.13
2024-05-09T00:28:01.641Z,12.26
2024-05-09T00:29:00.921Z,12.29
2024-05-09T00:30:00.886Z,12.37
2024-05-09T00:31:00.889Z,12.46
2024-05-09T00:32:01.091Z,12.44
2024-05-09T00:33:01.100Z,12.43
2024-05-09T00:34:01.353Z,12.45
2024-05-09T00:35:01.025Z,12.41
2024-05-09T00:36:00.954Z,12.42
2024-05-09T00:37:00.969Z,12.48
2024-05-09T00:38:01.320Z,12.44
2024-05-09T00:39:00.902Z,12.29
2024-05-09T00:40:00.927Z,12.21
2024-05-09T00:41:01.058Z,12.16
2024-05-09T00:42:00.934Z,12.25
2024-05-09T00:43:00.929Z,12.26
2024-05-09T00:44:00.961Z,12.32
2024-05-09T00:45:00.925Z,12.35
2024-05-09T00:46:00.934Z,12.37
2024-05-09T00:47:01.088Z,12.34
2024-05-09T00:48:01.452Z,12.40
2024-05-09T00:49:01.283Z,12.35
2024-05-09T00:50:01.181Z,12.32
2024-05-09T00:51:01.268Z,12.40
2024-05-09T00:52:01.230Z,12.44
2024-05-09T00:53:01.280Z,12.15
2024-05-09T00:54:01.279Z,12.01
2024-05-09T00:55:01.279Z,12.08
2024-05-09T00:56:01.319Z,12.13
2024-05-09T00:57:01.334Z,12.11
2024-05-09T00:58:01.347Z,12.13
2024-05-09T00:59:01.493Z,12.21
2024-05-09T01:00:01.433Z,12.02
2024-05-09T01:01:01.540Z,11.87
2024-05-09T01:02:01.628Z,11.80
2024-05-09T01:03:01.715Z,11.90
2024-05-09T01:04:01.618Z,11.96
2024-05-09T01:05:01.685Z,12.08
2024-05-09T01:06:01.638Z,12.15
2024-05-09T01:07:01.614Z,12.22
2024-05-09T01:08:01.799Z,12.21
2024-05-09T01:09:01.672Z,12.24
2024-05-09T01:10:01.728Z,12.27
2024-05-09T01:11:01.949Z,12.23
2024-05-09T01:12:01.928Z,12.16
2024-05-09T01:13:01.874Z,12.03
2024-05-09T01:14:01.915Z,12.02
2024-05-09T01:15:01.885Z,12.03
2024-05-09T01:16:01.939Z,12.04
2024-05-09T01:17:02.034Z,12.08
2024-05-09T01:18:02.448Z,12.18
2024-05-09T01:19:02.161Z,12.24
2024-05-09T01:20:02.266Z,12.19
2024-05-09T01:21:02.196Z,12.04
2024-05-09T01:22:02.217Z,12.04
2024-05-09T01:23:02.330Z,12.16
2024-05-09T01:24:02.233Z,12.22
2024-05-09T01:25:02.287Z,12.29
2024-05-09T01:26:02.357Z,12.35
2024-05-09T01:27:02.353Z,12.36
2024-05-09T01:28:02.417Z,12.33
2024-05-09T01:29:02.426Z,12.10
2024-05-09T01:30:04.016Z,12.14
2024-05-09T01:31:04.218Z,12.16
2024-05-09T01:32:02.558Z,12.11
2024-05-09T01:33:02.624Z,12.23
2024-05-09T01:34:02.474Z,12.32
2024-05-09T01:35:02.531Z,12.30
2024-05-09T01:36:02.443Z,12.36
2024-05-09T01:37:02.492Z,12.42
2024-05-09T01:38:02.629Z,12.51
2024-05-09T01:39:02.455Z,12.55
2024-05-09T01:40:02.463Z,12.46
2024-05-09T01:41:02.520Z,12.54
2024-05-09T01:42:02.471Z,12.49
2024-05-09T01:43:02.473Z,12.50
2024-05-09T01:44:02.495Z,12.49
2024-05-09T01:45:02.456Z,12.44
2024-05-09T01:46:02.501Z,12.43
2024-05-09T01:47:02.592Z,12.49
2024-05-09T01:48:03.001Z,12.34
2024-05-09T01:49:02.621Z,12.27
2024-05-09T01:50:03.317Z,12.28
2024-05-09T01:51:02.626Z,12.32
2024-05-09T01:52:02.642Z,12.40
2024-05-09T01:53:02.710Z,12.37
2024-05-09T01:54:02.634Z,12.41
2024-05-09T01:55:05.839Z,12.41
2024-05-09T01:56:02.708Z,12.43
2024-05-09T01:57:02.671Z,12.52
2024-05-09T01:58:02.665Z,12.62
2024-05-09T01:59:02.675Z,12.60
2024-05-09T02:00:02.999Z,12.47
2024-05-09T02:01:02.697Z,12.42
2024-05-09T02:02:02.834Z,12.40
2024-05-09T02:03:02.908Z,12.47
2024-05-09T02:04:02.993Z,12.55
2024-05-09T02:05:02.829Z,12.57
2024-05-09T02:06:02.831Z,12.66
2024-05-09T02:07:02.671Z,12.68
2024-05-09T02:08:02.762Z,12.74
2024-05-09T02:09:02.692Z,12.68
2024-05-09T02:10:06.483Z,12.66
2024-05-09T02:11:03.727Z,12.68
2024-05-09T02:12:02.842Z,12.75
2024-05-09T02:13:02.721Z,12.84
2024-05-09T02:14:02.777Z,12.84
2024-05-09T02:15:02.687Z,12.80
2024-05-09T02:16:02.678Z,12.87
2024-05-09T02:17:02.747Z,12.90
2024-05-09T02:18:02.806Z,12.62
2024-05-09T02:19:02.781Z,12.45
2024-05-09T02:20:02.910Z,12.52
2024-05-09T02:21:02.802Z,12.53
2024-05-09T02:22:02.714Z,12.55
2024-05-09T02:23:02.975Z,12.51
2024-05-09T02:24:02.778Z,12.59
2024-05-09T02:25:02.804Z,12.67
2024-05-09T02:26:02.892Z,12.73
2024-05-09T02:27:02.867Z,12.80
2024-05-09T02:28:02.982Z,12.88
2024-05-09T02:29:03.005Z,12.96
2024-05-09T02:30:04.674Z,12.98
2024-05-09T02:31:03.040Z,12.82
2024-05-09T02:32:03.781Z,12.61
2024-05-09T02:33:03.266Z,12.36
2024-05-09T02:34:03.348Z,12.40
2024-05-09T02:35:03.210Z,12.47
2024-05-09T02:36:03.103Z,12.45
2024-05-09T02:37:03.155Z,12.54
2024-05-09T02:38:03.327Z,12.49
2024-05-09T02:39:03.094Z,12.41
2024-05-09T02:40:03.475Z,12.49
2024-05-09T02:41:03.081Z,12.61
2024-05-09T02:42:03.087Z,12.73
2024-05-09T02:43:03.078Z,12.84
2024-05-09T02:44:03.142Z,12.92
2024-05-09T02:45:03.079Z,12.97
2024-05-09T02:46:03.079Z,13.01
2024-05-09T02:47:03.078Z,13.04
2024-05-09T02:48:03.432Z,12.92
2024-05-09T02:49:03.163Z,12.93
2024-05-09T02:50:04.633Z,12.94
2024-05-09T02:51:03.267Z,12.97
2024-05-09T02:52:03.150Z,12.94
2024-05-09T02:53:03.167Z,12.87
2024-05-09T02:54:03.134Z,12.83
2024-05-09T02:55:03.254Z,12.84
2024-05-09T02:56:03.180Z,12.63
2024-05-09T02:57:03.150Z,12.64
2024-05-09T02:58:03.154Z,12.69
2024-05-09T02:59:03.231Z,12.77
2024-05-09T03:00:06.200Z,12.75
2024-05-09T03:01:03.237Z,12.77
2024-05-09T03:02:03.273Z,12.70
2024-05-09T03:03:03.334Z,12.74
2024-05-09T03:04:03.305Z,12.76
2024-05-09T03:05:03.202Z,12.73
2024-05-09T03:06:03.176Z,12.62
2024-05-09T03:07:03.169Z,12.53
2024-05-09T03:08:03.248Z,12.46
2024-05-09T03:09:03.131Z,12.44
2024-05-09T03:10:03.488Z,12.41
2024-05-09T03:11:03.189Z,12.32
2024-05-09T03:12:03.462Z,12.35
2024-05-09T03:13:03.200Z,12.43
2024-05-09T03:14:03.196Z,12.42
2024-05-09T03:15:03.192Z,12.43
2024-05-09T03:16:03.178Z,12.47
2024-05-09T03:17:03.279Z,12.57
2024-05-09T03:18:03.608Z,12.49
2024-05-09T03:19:03.256Z,12.47
2024-05-09T03:20:05.121Z,12.46
2024-05-09T03:21:03.338Z,12.54
2024-05-09T03:22:03.175Z,12.58
2024-05-09T03:23:03.733Z,12.60
2024-05-09T03:24:03.191Z,12.58
2024-05-09T03:25:03.203Z,12.58
2024-05-09T03:26:03.232Z,12.49
2024-05-09T03:27:03.197Z,12.37
2024-05-09T03:28:03.220Z,12.39
2024-05-09T03:29:03.312Z,12.33
2024-05-09T03:30:05.497Z,12.34
2024-05-09T03:31:03.189Z,12.23
2024-05-09T03:32:03.361Z,12.31
2024-05-09T03:33:04.404Z,12.38
2024-05-09T03:34:03.451Z,12.34
2024-05-09T03:35:03.257Z,12.41
2024-05-09T03:36:03.219Z,12.46
2024-05-09T03:37:03.254Z,12.50
2024-05-09T03:38:03.357Z,12.47
2024-05-09T03:39:03.203Z,12.50
2024-05-09T03:40:05.604Z,12.46
2024-05-09T03:41:03.264Z,12.53
2024-05-09T03:42:03.245Z,12.64
2024-05-09T03:43:03.264Z,12.71
2024-05-09T03:44:03.245Z,12.78
2024-05-09T03:45:03.203Z,12.83
2024-05-09T03:46:03.227Z,12.86
2024-05-09T03:47:03.247Z,12.86
2024-05-09T03:48:03.425Z,12.80
2024-05-09T03:49:03.361Z,12.79
2024-05-09T03:50:05.639Z,12.73
2024-05-09T03:51:03.434Z,12.73
2024-05-09T03:52:03.467Z,12.74
2024-05-09T03:53:03.615Z,12.71
2024-05-09T03:54:03.549Z,12.60
2024-05-09T03:55:03.592Z,12.56
2024-05-09T03:56:03.694Z,12.62
2024-05-09T03:57:03.721Z,12.53
2024-05-09T03:58:03.762Z,12.43
2024-05-09T03:59:03.944Z,12.43
2024-05-09T04:00:05.500Z,12.54
2024-05-09T04:01:03.832Z,12.46
2024-05-09T04:02:04.054Z,12.51
2024-05-09T04:03:04.328Z,12.46
2024-05-09T04:04:03.978Z,12.44
2024-05-09T04:05:03.982Z,12.47
2024-05-09T04:06:03.997Z,12.61
2024-05-09T04:07:04.038Z,12.66
2024-05-09T04:08:04.157Z,12.66
2024-05-09T04:09:04.189Z,12.65
2024-05-09T04:10:05.412Z,12.63
2024-05-09T04:11:04.350Z,12.62
2024-05-09T04:12:04.251Z,12.55
2024-05-09T04:13:04.531Z,12.46
2024-05-09T04:14:04.214Z,12.45
2024-05-09T04:15:04.163Z,12.37
2024-05-09T04:16:04.196Z,12.30
2024-05-09T04:17:04.211Z,12.29
2024-05-09T04:18:04.354Z,12.28
2024-05-09T04:19:04.267Z,12.16
2024-05-09T04:20:05.145Z,12.17
2024-05-09T04:21:04.808Z,12.09
2024-05-09T04:22:04.170Z,12.15
2024-05-09T04:23:04.255Z,12.29
2024-05-09T04:24:04.186Z,12.28
2024-05-09T04:25:04.229Z,12.39
2024-05-09T04:26:04.342Z,12.36
2024-05-09T04:27:04.277Z,12.33
2024-05-09T04:28:04.355Z,12.39
2024-05-09T04:29:04.408Z,12.42
2024-05-09T04:30:06.165Z,12.50
2024-05-09T04:31:04.336Z,12.53
2024-05-09T04:32:04.427Z,12.59
2024-05-09T04:33:04.574Z,12.65
2024-05-09T04:34:04.665Z,12.71
2024-05-09T04:35:04.449Z,12.74
2024-05-09T04:36:04.502Z,12.68
2024-05-09T04:37:04.315Z,12.65
2024-05-09T04:38:04.480Z,12.52
2024-05-09T04:39:04.369Z,12.14
2024-05-09T04:40:06.997Z,12.10
2024-05-09T04:41:04.414Z,12.22
2024-05-09T04:42:04.356Z,12.29
2024-05-09T04:43:04.391Z,12.36
2024-05-09T04:44:12.277Z,12.44
2024-05-09T04:45:12.186Z,12.51
2024-05-09T04:46:12.217Z,12.61
2024-05-09T04:47:12.351Z,12.70
2024-05-09T04:48:12.494Z,12.70
2024-05-09T04:49:12.353Z,12.70
2024-05-09T04:50:20.996Z,12.76
2024-05-09T04:51:13.319Z,12.88
2024-05-09T04:52:12.251Z,12.88
2024-05-09T04:53:12.339Z,13.00
2024-05-09T04:54:25.757Z,13.09
2024-05-09T04:55:13.299Z,13.00
2024-05-09T04:56:12.338Z,12.94
2024-05-09T04:57:12.282Z,12.95
2024-05-09T04:58:12.362Z,12.86
2024-05-09T04:59:12.370Z,12.88
2024-05-09T05:00:14.976Z,12.78
2024-05-09T05:01:13.324Z,12.84
2024-05-09T05:02:12.341Z,12.97
2024-05-09T05:03:14.872Z,13.01
2024-05-09T05:04:12.375Z,12.87
2024-05-09T05:05:12.438Z,12.86
2024-05-09T05:06:12.284Z,12.83
2024-05-09T05:07:12.290Z,12.70
2024-05-09T05:08:12.765Z,12.67
2024-05-09T05:09:12.291Z,12.68
2024-05-09T05:10:21.325Z,12.76
2024-05-09T05:11:13.518Z,12.72
2024-05-09T05:12:12.532Z,12.73
2024-05-09T05:13:12.317Z,12.68
2024-05-09T05:14:12.338Z,12.59
2024-05-09T05:15:12.301Z,12.56
2024-05-09T05:16:12.292Z,12.63
2024-05-09T05:17:12.347Z,12.75
2024-05-09T05:18:12.421Z,12.78
2024-05-09T05:19:16.017Z,12.69
2024-05-09T05:20:17.852Z,12.64
2024-05-09T05:21:13.373Z,12.51
2024-05-09T05:22:12.300Z,12.50
2024-05-09T05:23:12.464Z,12.45
2024-05-09T05:24:12.314Z,12.42
2024-05-09T05:25:12.328Z,12.49
2024-05-09T05:26:12.444Z,12.63
2024-05-09T05:27:12.330Z,12.69
2024-05-09T05:28:12.319Z,12.75
2024-05-09T05:29:12.468Z,12.79
2024-05-09T05:31:12.351Z,12.92
2024-05-09T05:32:12.516Z,12.90
2024-05-09T05:33:12.688Z,12.75
2024-05-09T05:34:12.409Z,12.85
2024-05-09T05:35:12.488Z,13.03
2024-05-09T05:36:12.572Z,13.14
2024-05-09T05:37:12.542Z,13.25
2024-05-09T05:38:12.586Z,13.25
2024-05-09T05:39:12.572Z,13.06
2024-05-09T05:40:20.927Z,12.96
2024-05-09T05:41:13.664Z,12.95
2024-05-09T05:42:12.587Z,13.00
2024-05-09T05:43:12.626Z,13.00
2024-05-09T05:44:12.618Z,12.93
2024-05-09T05:45:12.597Z,12.74
2024-05-09T05:46:12.608Z,12.41
2024-05-09T05:47:12.734Z,12.50
2024-05-09T05:48:12.863Z,12.72
2024-05-09T05:49:12.842Z,12.95
2024-05-09T05:50:23.634Z,13.10
2024-05-09T05:51:13.869Z,13.21
2024-05-09T05:52:12.628Z,13.35
2024-05-09T05:53:12.677Z,13.43
2024-05-09T05:54:12.606Z,13.19
2024-05-09T05:55:12.636Z,13.06
2024-05-09T05:56:12.690Z,13.06
2024-05-09T05:57:12.616Z,13.22
2024-05-09T05:58:12.752Z,13.39
2024-05-09T05:59:15.045Z,13.40
2024-05-09T06:01:12.691Z,13.17
2024-05-09T06:02:12.767Z,12.99
2024-05-09T06:03:13.311Z,12.77
2024-05-09T06:04:12.770Z,12.87
2024-05-09T06:05:12.797Z,12.99
2024-05-09T06:06:12.756Z,12.99
2024-05-09T06:07:12.743Z,12.98
2024-05-09T06:08:12.971Z,13.13
2024-05-09T06:09:12.872Z,13.30
2024-05-09T06:10:17.645Z,13.47
2024-05-09T06:11:14.035Z,13.60
2024-05-09T06:12:13.011Z,13.74
2024-05-09T06:13:13.572Z,13.71
2024-05-09T06:14:12.979Z,13.69
2024-05-09T06:15:12.911Z,13.54
2024-05-09T06:16:12.856Z,13.58
2024-05-09T06:17:12.945Z,13.73
2024-05-09T06:18:13.281Z,13.99
2024-05-09T06:19:13.004Z,14.24
2024-05-09T06:20:20.090Z,14.32
2024-05-09T06:21:14.250Z,14.43
2024-05-09T06:22:12.903Z,14.68
2024-05-09T06:23:13.319Z,14.42
2024-05-09T06:24:12.907Z,14.33
2024-05-09T06:25:12.874Z,14.63
2024-05-09T06:26:12.963Z,14.95
2024-05-09T06:27:12.918Z,15.17
2024-05-09T06:28:12.950Z,15.64
2024-05-09T06:29:12.908Z,15.48
2024-05-09T06:30:24.869Z,15.17
2024-05-09T06:31:13.936Z,15.31
2024-05-09T06:32:13.017Z,15.50
2024-05-09T06:33:14.946Z,15.60
2024-05-09T06:34:12.983Z,15.32
2024-05-09T06:35:12.994Z,15.23
2024-05-09T06:36:12.938Z,15.37
2024-05-09T06:37:12.902Z,15.28
2024-05-09T06:38:13.054Z,15.23
2024-05-09T06:39:12.911Z,14.90
2024-05-09T06:40:17.374Z,14.98
2024-05-09T06:41:13.005Z,14.78
2024-05-09T06:42:12.933Z,14.80
2024-05-09T06:43:13.056Z,14.94
2024-05-09T06:44:13.025Z,14.68
2024-05-09T06:45:12.981Z,14.53
2024-05-09T06:46:12.956Z,14.80
2024-05-09T06:47:13.076Z,15.03
2024-05-09T06:48:13.199Z,15.22
2024-05-09T06:49:13.082Z,15.48
2024-05-09T06:50:20.357Z,15.61
2024-05-09T06:51:14.081Z,15.80
2024-05-09T06:52:12.942Z,15.19
2024-05-09T06:53:13.020Z,15.08
2024-05-09T06:54:12.957Z,15.33
2024-05-09T06:55:12.968Z,15.40
2024-05-09T06:56:13.010Z,15.31
2024-05-09T06:57:12.969Z,15.28
2024-05-09T06:58:13.020Z,15.64
2024-05-09T06:59:12.978Z,15.68
2024-05-09T07:00:19.101Z,15.75
2024-05-09T07:01:14.043Z,15.81
2024-05-09T07:02:13.024Z,16.08
2024-05-09T07:03:15.277Z,16.39
2024-05-09T07:04:13.116Z,15.88
2024-05-09T07:05:13.107Z,15.70
2024-05-09T07:06:13.024Z,15.96
2024-05-09T07:07:12.967Z,15.68
2024-05-09T07:08:13.149Z,15.69
2024-05-09T07:09:12.983Z,15.85
2024-05-09T07:10:21.513Z,15.89
2024-05-09T07:11:14.150Z,15.94
2024-05-09T07:12:13.073Z,16.21
2024-05-09T07:13:13.232Z,16.53
2024-05-09T07:14:13.020Z,16.51
2024-05-09T07:15:13.010Z,16.61
2024-05-09T07:16:13.018Z,16.70
2024-05-09T07:17:13.067Z,16.86
2024-05-09T07:18:13.698Z,17.06
2024-05-09T07:19:13.292Z,17.00
2024-05-09T07:20:19.964Z,16.87
2024-05-09T07:21:14.121Z,16.63
2024-05-09T07:22:13.024Z,16.98
2024-05-09T07:23:13.278Z,17.32
2024-05-09T07:24:12.993Z,17.49
2024-05-09T07:25:13.026Z,17.45
2024-05-09T07:26:13.077Z,17.76
2024-05-09T07:27:13.001Z,18.10
2024-05-09T07:28:13.042Z,18.41
2024-05-09T07:29:13.031Z,18.48
2024-05-09T07:30:19.908Z,18.79
2024-05-09T07:31:14.029Z,18.97
2024-05-09T07:32:13.079Z,18.48
2024-05-09T07:33:13.142Z,17.32
2024-05-09T07:34:13.140Z,16.57
2024-05-09T07:35:13.057Z,16.56
2024-05-09T07:36:13.045Z,16.96
2024-05-09T07:37:13.034Z,16.59
2024-05-09T07:38:13.132Z,16.31
2024-05-09T07:39:13.346Z,16.44
2024-05-09T07:40:21.261Z,16.55
2024-05-09T07:41:14.119Z,16.82
2024-05-09T07:42:13.085Z,16.92
2024-05-09T07:43:13.307Z,16.23
2024-05-09T07:44:13.101Z,16.22
2024-05-09T07:47:14.094Z,16.89
2024-05-09T07:48:28.860Z,17.16
2024-05-09T07:49:44.847Z,17.63
2024-05-09T07:53:29.304Z,18.18
2024-05-09T07:53:37.498Z,18.11
2024-05-09T07:54:14.192Z,18.03
2024-05-09T07:55:13.256Z,17.55
2024-05-09T07:56:13.832Z,17.55
2024-05-09T07:57:13.131Z,17.96
2024-05-09T07:58:13.083Z,18.17
2024-05-09T07:59:13.107Z,17.86
2024-05-09T08:00:17.318Z,17.33
2024-05-09T08:01:14.210Z,17.43
2024-05-09T08:02:13.466Z,17.61
2024-05-09T08:03:13.132Z,17.31
2024-05-09T08:04:13.170Z,17.33
2024-05-09T08:05:13.344Z,17.75
2024-05-09T08:06:13.109Z,18.03
2024-05-09T08:07:13.199Z,18.33
2024-05-09T08:08:13.108Z,18.68
2024-05-09T08:09:16.935Z,18.06
2024-05-09T08:10:18.721Z,17.06
2024-05-09T08:11:14.150Z,16.97
2024-05-09T08:12:13.086Z,17.06
2024-05-09T08:13:13.146Z,16.87
2024-05-09T08:14:13.088Z,17.24
2024-05-09T08:15:13.105Z,17.45
2024-05-09T08:16:13.143Z,17.88
2024-05-09T08:17:13.105Z,17.55
2024-05-09T08:18:13.299Z,16.61
2024-05-09T08:19:13.284Z,16.83
2024-05-09T08:21:13.130Z,17.35
2024-05-09T08:22:13.197Z,17.75
2024-05-09T08:23:13.106Z,17.59
2024-05-09T08:24:13.117Z,16.95
2024-05-09T08:25:14.114Z,17.35
2024-05-09T08:26:13.132Z,17.45
2024-05-09T08:27:13.142Z,17.54
2024-05-09T08:28:13.303Z,17.85
2024-05-09T08:29:13.122Z,17.96
2024-05-09T08:30:21.578Z,17.89
2024-05-09T08:31:14.211Z,18.09
2024-05-09T08:32:13.154Z,18.26
2024-05-09T08:33:13.189Z,18.46
2024-05-09T08:34:13.234Z,18.64
2024-05-09T08:35:13.108Z,18.55
2024-05-09T08:36:13.120Z,17.56
2024-05-09T08:37:19.706Z,17.34
2024-05-09T08:38:14.216Z,17.20
2024-05-09T08:39:13.134Z,16.60
2024-05-09T08:40:19.843Z,16.74
2024-05-09T08:41:14.164Z,17.13
2024-05-09T08:42:13.151Z,17.32
2024-05-09T08:43:13.398Z,17.49
2024-05-09T08:44:13.145Z,17.73
2024-05-09T08:45:13.148Z,17.78
2024-05-09T08:46:13.310Z,17.90
2024-05-09T08:47:13.162Z,17.75
2024-05-09T08:48:13.677Z,17.85
2024-05-09T08:49:13.237Z,17.98
2024-05-09T08:50:23.560Z,18.14
2024-05-09T08:51:14.199Z,18.44
2024-05-09T08:52:13.160Z,18.83
2024-05-09T08:53:13.162Z,18.91
2024-05-09T08:54:13.145Z,18.15
2024-05-09T08:55:13.212Z,18.51
2024-05-09T08:56:14.211Z,18.63
2024-05-09T08:57:13.163Z,18.72
2024-05-09T08:58:13.345Z,19.03
2024-05-09T08:59:13.138Z,18.98
2024-05-09T09:00:18.022Z,17.76
2024-05-09T09:01:14.209Z,17.35
2024-05-09T09:02:13.423Z,17.78
2024-05-09T09:03:13.172Z,17.94
2024-05-09T09:04:13.373Z,17.79
2024-05-09T09:05:13.265Z,17.64
2024-05-09T09:06:13.129Z,17.63
2024-05-09T09:07:13.300Z,18.01
2024-05-09T09:08:13.187Z,18.36
2024-05-09T09:09:13.166Z,18.56
2024-05-09T09:11:13.166Z,18.65
2024-05-09T09:12:13.162Z,18.51
2024-05-09T09:13:13.256Z,18.74
2024-05-09T09:14:13.230Z,19.16
2024-05-09T09:15:13.239Z,19.68
2024-05-09T09:16:13.316Z,19.47
2024-05-09T09:17:13.305Z,19.35
2024-05-09T09:18:13.460Z,18.01
2024-05-09T09:19:13.493Z,17.99
2024-05-09T09:20:16.608Z,18.43
2024-05-09T09:21:14.419Z,18.95
2024-05-09T09:22:13.476Z,19.10
2024-05-09T09:23:13.878Z,19.43
2024-05-09T09:24:13.412Z,19.90
2024-05-09T09:25:13.448Z,20.33
2024-05-09T09:26:13.469Z,20.75
2024-05-09T09:27:13.425Z,20.61
2024-05-09T09:28:13.643Z,20.68
2024-05-09T09:29:13.449Z,20.09
2024-05-09T09:30:27.656Z,20.29
2024-05-09T09:31:14.481Z,20.71
2024-05-09T09:32:13.424Z,19.93
2024-05-09T09:33:13.628Z,20.13
2024-05-09T09:34:13.531Z,20.26
2024-05-09T09:35:13.434Z,20.11
2024-05-09T09:36:13.512Z,20.13
2024-05-09T09:37:13.464Z,20.57
2024-05-09T09:38:13.452Z,20.51
2024-05-09T09:39:13.447Z,18.92
2024-05-09T09:40:15.430Z,19.07
2024-05-09T09:41:13.496Z,19.13
2024-05-09T09:42:13.432Z,19.51
2024-05-09T09:43:13.753Z,18.27
2024-05-09T09:44:13.426Z,18.83
2024-05-09T09:45:13.447Z,19.19
2024-05-09T09:46:13.608Z,19.59
2024-05-09T09:47:13.610Z,20.06
2024-05-09T09:48:13.708Z,20.40
2024-05-09T09:49:16.864Z,20.46
2024-05-09T09:50:16.994Z,20.45
2024-05-09T09:51:14.651Z,20.72
2024-05-09T09:52:13.881Z,20.50
2024-05-09T09:53:13.719Z,20.68
2024-05-09T09:54:13.653Z,20.90
2024-05-09T09:55:13.883Z,20.66
2024-05-09T09:56:13.672Z,19.50
2024-05-09T09:57:13.664Z,18.99
2024-05-09T09:58:14.535Z,19.47
2024-05-09T09:59:13.679Z,19.63
2024-05-09T10:00:17.435Z,19.48
2024-05-09T10:01:14.789Z,19.71
2024-05-09T10:02:13.856Z,19.28
2024-05-09T10:03:13.784Z,19.14
2024-05-09T10:04:13.729Z,19.67
2024-05-09T10:05:13.810Z,19.93
2024-05-09T10:06:13.703Z,20.43
2024-05-09T10:07:13.863Z,21.01
2024-05-09T10:08:13.696Z,21.52
2024-05-09T10:09:13.726Z,21.14
2024-05-09T10:10:16.357Z,20.92
2024-05-09T10:11:14.718Z,21.25
2024-05-09T10:12:13.730Z,20.94
2024-05-09T10:13:13.823Z,20.95
2024-05-09T10:14:13.697Z,20.94
2024-05-09T10:15:13.681Z,21.12
2024-05-09T10:16:13.758Z,20.03
2024-05-09T10:17:13.716Z,19.36
2024-05-09T10:18:13.998Z,19.47
2024-05-09T10:19:13.827Z,20.03
2024-05-09T10:20:21.351Z,20.49
2024-05-09T10:21:14.760Z,20.35
2024-05-09T10:22:13.759Z,19.98
2024-05-09T10:23:13.748Z,20.35
2024-05-09T10:24:13.715Z,20.61
2024-05-09T10:25:13.828Z,20.73
2024-05-09T10:26:13.708Z,20.49
2024-05-09T10:27:13.722Z,20.64
2024-05-09T10:28:13.830Z,20.84
2024-05-09T10:29:13.714Z,20.88
2024-05-09T10:30:21.261Z,21.11
2024-05-09T10:31:14.843Z,21.17
2024-05-09T10:32:13.749Z,21.61
2024-05-09T10:33:13.885Z,21.75
2024-05-09T10:34:13.943Z,21.97
2024-05-09T10:35:13.756Z,21.99
2024-05-09T10:36:13.741Z,21.84
2024-05-09T10:37:13.802Z,21.16
2024-05-09T10:38:13.762Z,21.48
2024-05-09T10:39:13.750Z,21.70
2024-05-09T10:40:20.299Z,21.97
2024-05-09T10:41:14.763Z,22.04
2024-05-09T10:42:13.745Z,22.06
2024-05-09T10:43:13.843Z,22.21
2024-05-09T10:44:13.736Z,22.42
2024-05-09T10:45:13.732Z,22.45
2024-05-09T10:46:13.866Z,22.37
2024-05-09T10:47:13.810Z,22.22
2024-05-09T10:48:14.399Z,21.79
2024-05-09T10:49:13.852Z,21.47
2024-05-09T10:51:13.765Z,21.32
2024-05-09T10:52:13.751Z,20.21
2024-05-09T10:53:13.776Z,19.41
2024-05-09T10:54:13.782Z,19.72
2024-05-09T10:55:13.943Z,20.26
2024-05-09T10:56:13.923Z,19.54
2024-05-09T10:57:13.925Z,19.81
2024-05-09T10:58:14.077Z,20.19
2024-05-09T10:59:14.046Z,19.25
2024-05-09T11:00:19.482Z,19.07
2024-05-09T11:01:15.182Z,19.41
2024-05-09T11:02:14.214Z,19.84
2024-05-09T11:03:14.164Z,20.55
2024-05-09T11:04:14.434Z,20.63
2024-05-09T11:05:14.311Z,21.12
2024-05-09T11:06:14.064Z,21.58
2024-05-09T11:07:14.088Z,21.98
2024-05-09T11:08:14.089Z,22.00
2024-05-09T11:09:14.082Z,22.03
2024-05-09T11:10:17.921Z,20.93
2024-05-09T11:11:15.164Z,20.21
2024-05-09T11:12:14.223Z,20.63
2024-05-09T11:13:14.247Z,21.14
2024-05-09T11:14:14.115Z,21.58
2024-05-09T11:15:14.121Z,20.91
2024-05-09T11:16:14.194Z,19.69
2024-05-09T11:17:14.164Z,19.56
2024-05-09T11:18:14.269Z,19.87
2024-05-09T11:19:14.319Z,20.04
2024-05-09T11:20:22.577Z,20.47
2024-05-09T11:21:15.099Z,20.89
2024-05-09T11:22:14.297Z,21.29
2024-05-09T11:23:14.150Z,21.62
2024-05-09T11:24:14.166Z,22.06
2024-05-09T11:25:14.235Z,22.36
2024-05-09T11:26:14.112Z,21.92
2024-05-09T11:27:14.105Z,22.12
2024-05-09T11:28:14.122Z,22.14
2024-05-09T11:29:17.058Z,21.85
2024-05-09T11:30:20.887Z,21.68
2024-05-09T11:31:15.227Z,21.71
2024-05-09T11:32:14.209Z,20.96
2024-05-09T11:33:14.268Z,21.06
2024-05-09T11:34:14.126Z,21.33
2024-05-09T11:35:14.158Z,20.55
2024-05-09T11:36:14.142Z,21.01
2024-05-09T11:37:14.263Z,21.51
2024-05-09T11:38:14.193Z,21.74
2024-05-09T11:39:14.149Z,21.87
2024-05-09T11:40:21.337Z,21.76
2024-05-09T11:41:15.120Z,21.95
2024-05-09T11:42:14.157Z,22.09
2024-05-09T11:43:14.206Z,21.98
2024-05-09T11:44:14.181Z,21.69
2024-05-09T11:45:14.159Z,21.12
2024-05-09T11:46:14.467Z,21.42
2024-05-09T11:47:14.406Z,21.94
2024-05-09T11:48:14.245Z,22.04
2024-05-09T11:49:14.331Z,21.10
2024-05-09T11:50:22.471Z,21.26
2024-05-09T11:51:15.159Z,21.33
2024-05-09T11:52:14.206Z,21.56
2024-05-09T11:53:14.171Z,21.63
2024-05-09T11:54:14.150Z,21.77
2024-05-09T11:55:14.393Z,21.56
2024-05-09T11:56:14.178Z,20.03
2024-05-09T11:57:14.183Z,20.45
2024-05-09T11:58:14.265Z,20.91
2024-05-09T11:59:14.169Z,21.28
2024-05-09T12:01:14.232Z,20.85
2024-05-09T12:02:14.469Z,21.03
2024-05-09T12:03:14.321Z,21.18
2024-05-09T12:04:14.420Z,20.70
2024-05-09T12:05:14.211Z,20.60
2024-05-09T12:06:14.244Z,21.04
2024-05-09T12:07:14.353Z,20.85
2024-05-09T12:08:14.365Z,21.00
2024-05-09T12:09:14.278Z,21.27
2024-05-09T12:10:19.729Z,21.37
2024-05-09T12:11:15.477Z,21.65
2024-05-09T12:12:14.393Z,21.72
2024-05-09T12:13:14.492Z,21.69
2024-05-09T12:14:14.389Z,21.88
2024-05-09T12:15:14.390Z,21.77
2024-05-09T12:16:14.535Z,21.67
2024-05-09T12:17:14.446Z,21.22
2024-05-09T12:18:14.516Z,20.97
2024-05-09T12:19:14.483Z,20.86
2024-05-09T12:20:21.421Z,20.92
2024-05-09T12:21:15.413Z,21.21
2024-05-09T12:22:14.662Z,21.13
2024-05-09T12:23:14.438Z,20.94
2024-05-09T12:24:17.773Z,21.17
2024-05-09T12:25:14.506Z,21.55
2024-05-09T12:26:14.375Z,21.77
2024-05-09T12:27:14.394Z,21.75
2024-05-09T12:28:14.567Z,21.36
2024-05-09T12:29:14.414Z,21.55
2024-05-09T12:30:24.449Z,21.74
2024-05-09T12:31:15.450Z,21.75
2024-05-09T12:32:14.566Z,21.81
2024-05-09T12:33:14.544Z,21.93
2024-05-09T12:34:14.532Z,21.80
2024-05-09T12:35:14.450Z,21.46
2024-05-09T12:36:14.426Z,21.76
2024-05-09T12:37:14.461Z,22.01
2024-05-09T12:38:14.395Z,22.00
2024-05-09T12:39:14.456Z,22.31
2024-05-09T12:40:22.856Z,22.65
2024-05-09T12:41:15.472Z,21.65
2024-05-09T12:42:26.322Z,21.04
2024-05-09T12:43:15.452Z,21.30
2024-05-09T12:44:14.442Z,21.53
2024-05-09T12:45:14.487Z,21.71
2024-05-09T12:46:14.499Z,21.90
2024-05-09T12:47:14.507Z,21.85
2024-05-09T12:48:14.509Z,21.76
2024-05-09T12:49:17.355Z,22.18
2024-05-09T12:50:22.318Z,21.55
2024-05-09T12:51:15.471Z,21.58
2024-05-09T12:52:14.627Z,21.87
2024-05-09T12:53:14.464Z,21.72
2024-05-09T12:54:14.474Z,21.72
2024-05-09T12:55:14.608Z,21.56
2024-05-09T12:56:14.438Z,21.48
2024-05-09T12:57:14.436Z,21.11
2024-05-09T12:58:14.642Z,20.65
2024-05-09T12:59:14.443Z,20.84
2024-05-09T13:00:23.441Z,20.29
2024-05-09T13:01:15.578Z,20.40
2024-05-09T13:02:14.599Z,20.86